createdAt,value
2019-04-10T00:00:48.547Z,7.90
2019-04-10T00:03:31.191Z,7.90
2019-04-10T00:05:48.298Z,7.80
2019-04-10T00:08:17.845Z,7.80
2019-04-10T00:10:47.849Z,7.80
2019-04-10T00:13:18.351Z,7.70
2019-04-10T00:15:50.850Z,7.70
2019-04-10T00:18:20.027Z,7.70
2019-04-10T00:20:49.147Z,7.60
2019-04-10T00:23:19.079Z,7.60
2019-04-10T00:25:48.775Z,7.60
2019-04-10T00:28:17.738Z,7.50
2019-04-10T00:30:46.454Z,7.50
2019-04-10T00:33:16.519Z,7.50
2019-04-10T00:35:45.713Z,7.50
2019-04-10T00:38:15.627Z,7.40
2019-04-10T00:40:45.583Z,7.40
2019-04-10T00:43:14.951Z,7.40
2019-04-10T00:45:44.072Z,7.40
2019-04-10T00:48:13.008Z,7.30
2019-04-10T00:50:42.526Z,7.30
2019-04-10T00:53:12.716Z,7.20
2019-04-10T00:55:41.473Z,7.20
2019-04-10T00:58:14.109Z,7.20
2019-04-10T01:00:43.445Z,7.20
2019-04-10T01:03:15.643Z,7.10
2019-04-10T01:05:44.810Z,7.10
2019-04-10T01:08:13.621Z,7.10
2019-04-10T01:10:42.605Z,7.00
2019-04-10T01:13:12.355Z,7.00
2019-04-10T01:15:44.536Z,7.00
2019-04-10T01:18:13.615Z,6.90
2019-04-10T01:20:42.550Z,6.90
2019-04-10T01:23:11.914Z,6.90
2019-04-10T01:25:40.925Z,6.90
2019-04-10T01:28:10.896Z,6.80
2019-04-10T01:30:40.305Z,6.80
2019-04-10T01:33:09.394Z,6.80
2019-04-10T01:35:40.490Z,6.70
2019-04-10T01:38:09.661Z,6.70
2019-04-10T01:40:39.409Z,6.70
2019-04-10T01:43:13.372Z,6.60
2019-04-10T01:45:39.840Z,6.60
2019-04-10T01:48:09.933Z,6.60
2019-04-10T01:50:39.259Z,6.50
2019-04-10T01:53:08.008Z,6.40
2019-04-10T01:55:38.854Z,6.50
2019-04-10T01:58:13.409Z,6.40
2019-04-10T02:00:46.207Z,6.40
2019-04-10T02:03:15.962Z,6.30
2019-04-10T02:05:45.162Z,6.30
2019-04-10T02:08:16.086Z,6.30
2019-04-10T02:10:44.695Z,6.20
2019-04-10T02:13:13.588Z,6.20
2019-04-10T02:15:42.333Z,6.10
2019-04-10T02:18:11.221Z,6.10
2019-04-10T02:20:39.981Z,6.10
2019-04-10T02:23:09.976Z,6.10
2019-04-10T02:25:39.145Z,6.00
2019-04-10T02:28:09.012Z,6.00
2019-04-10T02:30:44.116Z,6.00
2019-04-10T02:33:13.963Z,6.00
2019-04-10T02:35:45.395Z,5.90
2019-04-10T02:38:33.848Z,5.90
2019-04-10T02:40:45.688Z,5.90
2019-04-10T02:43:21.086Z,5.80
2019-04-10T02:45:51.191Z,5.80
2019-04-10T02:48:20.537Z,5.80
2019-04-10T02:50:49.457Z,5.70
2019-04-10T02:53:19.589Z,5.70
2019-04-10T02:55:49.333Z,5.70
2019-04-10T02:58:18.814Z,5.70
2019-04-10T03:00:51.842Z,5.60
2019-04-10T03:03:20.147Z,5.60
2019-04-10T03:05:48.957Z,5.60
2019-04-10T03:08:17.792Z,5.60
2019-04-10T03:10:51.727Z,5.50
2019-04-10T03:13:17.908Z,5.50
2019-04-10T03:15:47.647Z,5.50
2019-04-10T03:18:16.836Z,5.40
2019-04-10T03:20:46.719Z,5.40
2019-04-10T03:23:15.773Z,5.40
2019-04-10T03:25:45.479Z,5.40
2019-04-10T03:28:14.603Z,5.30
2019-04-10T03:30:46.575Z,5.30
2019-04-10T03:33:55.443Z,5.30
2019-04-10T03:36:24.340Z,5.30
2019-04-10T03:39:00.126Z,5.30
2019-04-10T03:41:24.193Z,5.20
2019-04-10T03:43:52.994Z,5.20
2019-04-10T03:46:21.875Z,5.10
2019-04-10T03:48:53.905Z,5.10
2019-04-10T03:51:22.931Z,5.10
2019-04-10T03:53:51.743Z,5.10
2019-04-10T03:56:21.360Z,5.10
2019-04-10T03:58:53.321Z,5.00
2019-04-10T04:01:22.998Z,5.00
2019-04-10T04:03:53.012Z,5.00
2019-04-10T04:06:22.121Z,5.00
2019-04-10T04:09:01.289Z,4.90
2019-04-10T04:11:21.770Z,4.90
2019-04-10T04:13:50.862Z,4.90
2019-04-10T04:16:19.923Z,4.80
2019-04-10T04:18:49.163Z,4.80
2019-04-10T04:21:18.221Z,4.80
2019-04-10T04:23:47.124Z,4.70
2019-04-10T04:26:15.885Z,4.70
2019-04-10T04:28:47.872Z,4.70
2019-04-10T04:31:16.562Z,4.70
2019-04-10T04:33:45.323Z,4.70
2019-04-10T04:36:14.054Z,4.70
2019-04-10T04:38:43.217Z,4.70
2019-04-10T04:41:13.229Z,4.60
2019-04-10T04:43:44.459Z,4.60
2019-04-10T04:46:12.870Z,4.60
2019-04-10T04:48:41.803Z,4.60
2019-04-10T04:51:11.234Z,4.60
2019-04-10T04:53:40.442Z,4.60
2019-04-10T04:56:09.523Z,4.60
2019-04-10T04:58:38.592Z,4.60
2019-04-10T05:01:07.316Z,4.60
2019-04-10T05:03:37.458Z,4.60
2019-04-10T05:06:06.266Z,4.60
2019-04-10T05:08:35.157Z,4.60
2019-04-10T05:11:06.433Z,4.60
2019-04-10T05:13:35.180Z,4.60
2019-04-10T05:16:10.106Z,4.60
2019-04-10T05:18:35.310Z,4.60
2019-04-10T05:21:05.144Z,4.60
2019-04-10T05:23:35.056Z,4.60
2019-04-10T05:26:03.894Z,4.60
2019-04-10T05:28:32.770Z,4.60
2019-04-10T05:31:03.115Z,4.70
2019-04-10T05:33:33.152Z,4.70
2019-04-10T05:36:02.372Z,4.70
2019-04-10T05:38:31.201Z,4.70
2019-04-10T05:40:59.808Z,4.70
2019-04-10T05:43:28.516Z,4.70
2019-04-10T05:45:57.692Z,4.80
2019-04-10T05:48:26.499Z,4.80
2019-04-10T05:51:02.252Z,4.80
2019-04-10T05:53:26.627Z,4.80
2019-04-10T05:55:55.877Z,4.80
2019-04-10T05:58:25.802Z,4.80
2019-04-10T06:00:56.831Z,4.90
2019-04-10T06:03:25.648Z,4.90
2019-04-10T06:05:54.450Z,4.90
2019-04-10T06:08:23.750Z,5.00
2019-04-10T06:10:52.687Z,5.00
2019-04-10T06:13:22.800Z,5.00
2019-04-10T06:15:53.001Z,5.10
2019-04-10T06:18:22.853Z,5.10
2019-04-10T06:20:51.853Z,5.10
2019-04-10T06:23:20.624Z,5.10
2019-04-10T06:25:49.884Z,5.10
2019-04-10T06:28:18.774Z,5.10
2019-04-10T06:30:48.077Z,5.10
2019-04-10T06:33:17.976Z,5.20
2019-04-10T06:35:47.299Z,5.20
2019-04-10T06:38:16.886Z,5.10
2019-04-10T06:40:46.103Z,5.20
2019-04-10T06:43:15.185Z,5.20
2019-04-10T06:45:44.076Z,5.20
2019-04-10T06:48:13.092Z,5.20
2019-04-10T06:50:41.778Z,5.20
2019-04-10T06:53:10.468Z,5.20
2019-04-10T06:55:40.482Z,5.20
2019-04-10T06:58:09.672Z,5.20
2019-04-10T07:00:39.144Z,5.30
2019-04-10T07:03:08.598Z,5.30
2019-04-10T07:05:44.828Z,5.30
2019-04-10T07:08:16.012Z,5.40
2019-04-10T07:10:48.057Z,5.40
2019-04-10T07:13:11.569Z,5.40
2019-04-10T07:15:42.274Z,5.40
2019-04-10T07:18:14.434Z,5.40
2019-04-10T07:20:42.047Z,5.50
2019-04-10T07:23:14.126Z,5.50
2019-04-10T07:25:44.482Z,5.50
2019-04-10T07:28:13.629Z,5.60
2019-04-10T07:30:43.549Z,5.70
2019-04-10T07:33:14.899Z,5.80
2019-04-10T07:35:43.032Z,5.80
2019-04-10T07:38:11.873Z,5.90
2019-04-10T07:40:40.743Z,5.90
2019-04-10T07:43:09.505Z,6.00
2019-04-10T07:45:38.534Z,6.10
2019-04-10T07:48:08.602Z,6.20
2019-04-10T07:50:39.087Z,6.30
2019-04-10T07:53:08.418Z,6.30
2019-04-10T07:55:37.533Z,6.40
2019-04-10T07:58:06.873Z,6.50
2019-04-10T08:00:36.665Z,6.60
2019-04-10T08:03:06.317Z,6.60
2019-04-10T08:05:35.434Z,6.60
2019-04-10T08:08:05.151Z,6.70
2019-04-10T08:10:34.847Z,6.70
2019-04-10T08:13:04.536Z,6.80
2019-04-10T08:15:33.701Z,6.80
2019-04-10T08:18:02.705Z,6.80
2019-04-10T08:20:32.668Z,6.90
2019-04-10T08:23:01.865Z,6.90
2019-04-10T08:25:31.119Z,7.00
2019-04-10T08:28:00.673Z,7.00
2019-04-10T08:30:30.060Z,7.10
2019-04-10T08:33:01.178Z,7.10
2019-04-10T08:35:29.353Z,7.20
2019-04-10T08:37:59.153Z,7.30
2019-04-10T08:40:28.177Z,7.30
2019-04-10T08:42:57.789Z,7.40
2019-04-10T08:45:38.617Z,7.40
2019-04-10T08:47:57.412Z,7.50
2019-04-10T08:50:28.102Z,7.50
2019-04-10T08:52:57.870Z,7.60
2019-04-10T08:55:28.140Z,7.50
2019-04-10T08:57:57.191Z,7.60
2019-04-10T09:00:26.852Z,7.60
2019-04-10T09:02:55.717Z,7.70
2019-04-10T09:05:27.814Z,7.80
2019-04-10T09:07:56.958Z,7.80
2019-04-10T09:10:26.068Z,7.80
2019-04-10T09:12:55.999Z,7.90
2019-04-10T09:15:25.761Z,7.90
2019-04-10T09:17:55.597Z,7.80
2019-04-10T09:20:24.812Z,7.90
2019-04-10T09:23:13.391Z,8.00
2019-04-10T09:25:24.919Z,8.10
2019-04-10T09:27:53.920Z,8.20
2019-04-10T09:30:23.266Z,8.30
2019-04-10T09:32:52.771Z,8.30
2019-04-10T09:35:22.574Z,8.50
2019-04-10T09:37:52.396Z,8.60
2019-04-10T09:40:22.358Z,8.60
2019-04-10T09:42:52.141Z,8.60
2019-04-10T09:45:22.281Z,8.70
2019-04-10T09:47:52.343Z,8.80
2019-04-10T09:50:21.439Z,8.90
2019-04-10T09:52:50.348Z,9.00
2019-04-10T09:55:22.524Z,9.10
2019-04-10T09:57:51.830Z,9.10
2019-04-10T10:00:21.344Z,9.20
2019-04-10T10:02:50.713Z,9.20
2019-04-10T10:05:20.424Z,9.30
2019-04-10T10:07:49.171Z,9.40
2019-04-10T10:10:18.083Z,9.40
2019-04-10T10:12:47.068Z,9.50
2019-04-10T10:15:16.850Z,9.70
2019-04-10T10:17:46.625Z,9.90
2019-04-10T10:20:16.594Z,10.00
2019-04-10T10:22:45.405Z,10.10
2019-04-10T10:25:15.224Z,10.20
2019-04-10T10:27:44.757Z,10.20
2019-04-10T10:30:14.170Z,10.20
2019-04-10T10:32:43.810Z,10.20
2019-04-10T10:35:12.964Z,10.20
2019-04-10T10:37:42.811Z,10.30
2019-04-10T10:40:12.644Z,10.40
2019-04-10T10:42:41.653Z,10.60
2019-04-10T10:45:12.802Z,10.60
2019-04-10T10:47:41.549Z,10.70
2019-04-10T10:50:10.471Z,10.80
2019-04-10T10:52:39.772Z,10.80
2019-04-10T10:55:09.686Z,10.90
2019-04-10T10:57:39.567Z,10.80
2019-04-10T11:00:11.964Z,10.90
2019-04-10T11:02:40.093Z,10.90
2019-04-10T11:05:08.994Z,10.90
2019-04-10T11:07:38.847Z,10.90
2019-04-10T11:10:08.545Z,11.00
2019-04-10T11:12:39.716Z,11.10
2019-04-10T11:15:08.602Z,11.20
2019-04-10T11:17:40.450Z,11.30
2019-04-10T11:20:12.579Z,11.40
2019-04-10T11:22:42.038Z,11.40
2019-04-10T11:25:12.117Z,11.60
2019-04-10T11:27:41.994Z,11.50
2019-04-10T11:30:15.995Z,11.50
2019-04-10T11:32:46.304Z,11.60
2019-04-10T11:35:17.421Z,11.70
2019-04-10T11:38:00.494Z,11.70
2019-04-10T11:46:58.592Z,11.60
2019-04-10T11:50:43.920Z,11.60
2019-04-10T11:58:24.369Z,11.70
2019-04-10T12:20:19.149Z,11.90
2019-04-10T12:26:54.822Z,11.70
2019-04-10T12:29:42.538Z,11.60
2019-04-10T12:36:16.422Z,11.70
2019-04-10T12:43:29.191Z,11.60
2019-04-10T12:46:46.067Z,11.70
2019-04-10T12:50:41.289Z,12.00
2019-04-10T12:53:32.375Z,12.00
2019-04-10T12:57:06.471Z,11.90
2019-04-10T13:06:51.141Z,11.80
2019-04-10T13:09:50.459Z,11.90
2019-04-10T13:19:04.840Z,12.10
2019-04-10T13:21:39.064Z,12.00
2019-04-10T13:24:31.365Z,12.00
2019-04-10T13:27:57.510Z,11.90
2019-04-10T13:30:40.378Z,11.90
2019-04-10T13:40:50.222Z,11.90
2019-04-10T13:55:21.883Z,11.90
2019-04-10T14:05:59.579Z,11.80
2019-04-10T14:12:54.064Z,11.80
2019-04-10T14:16:20.852Z,11.80
2019-04-10T14:19:10.959Z,12.00
2019-04-10T14:23:02.186Z,12.00
2019-04-10T14:26:22.640Z,12.00
2019-04-10T14:32:45.960Z,12.00
2019-04-10T14:43:37.376Z,12.20
2019-04-10T14:46:49.725Z,12.10
2019-04-10T14:54:05.873Z,12.00
2019-04-10T15:03:46.722Z,12.10
2019-04-10T15:23:53.214Z,12.20
2019-04-10T15:27:24.943Z,12.30
2019-04-10T15:33:10.740Z,12.50
2019-04-10T15:35:48.259Z,12.50
2019-04-10T15:39:33.959Z,12.50
2019-04-10T15:49:15.766Z,12.90
2019-04-10T15:55:36.064Z,12.90
2019-04-10T15:58:17.293Z,12.90
2019-04-10T16:00:47.617Z,12.90
2019-04-10T16:07:32.318Z,13.00
2019-04-10T16:16:27.582Z,13.10
2019-04-10T16:18:30.443Z,12.90
2019-04-10T16:21:21.716Z,12.90
2019-04-10T16:34:22.690Z,13.10
2019-04-10T16:37:26.345Z,13.10
2019-04-10T16:39:38.298Z,13.00
2019-04-10T16:42:24.780Z,12.90
2019-04-10T16:45:17.598Z,12.80
2019-04-10T16:48:04.975Z,12.80
2019-04-10T16:50:39.746Z,12.60
2019-04-10T16:53:16.004Z,12.70
2019-04-10T16:55:57.262Z,12.60
2019-04-10T16:58:26.144Z,12.50
2019-04-10T17:00:58.066Z,12.50
2019-04-10T17:03:27.602Z,12.60
2019-04-10T17:06:02.195Z,12.50
2019-04-10T17:08:32.217Z,12.40
2019-04-10T17:11:05.051Z,12.30
2019-04-10T17:13:42.549Z,12.20
2019-04-10T17:16:23.889Z,12.00
2019-04-10T17:18:59.476Z,12.00
2019-04-10T17:21:30.595Z,11.90
2019-04-10T17:24:00.797Z,11.90
2019-04-10T17:26:30.997Z,11.80
2019-04-10T17:29:20.840Z,11.60
2019-04-10T17:31:51.241Z,11.40
2019-04-10T17:34:25.003Z,11.30
2019-04-10T17:37:11.807Z,11.10
2019-04-10T17:39:47.203Z,11.00
2019-04-10T17:42:16.565Z,10.80
2019-04-10T17:44:47.823Z,10.70
2019-04-10T17:47:19.237Z,10.60
2019-04-10T17:49:56.060Z,10.50
2019-04-10T17:52:28.737Z,10.30
2019-04-10T17:55:03.195Z,10.20
2019-04-10T17:57:38.946Z,10.10
2019-04-10T18:00:41.409Z,10.00
2019-04-10T18:03:17.902Z,9.80
2019-04-10T18:05:45.393Z,9.60
2019-04-10T18:08:16.691Z,9.50
2019-04-10T18:10:51.162Z,9.40
2019-04-10T18:13:22.439Z,9.20
2019-04-10T18:15:57.169Z,9.10
2019-04-10T18:18:27.470Z,9.00
2019-04-10T18:20:56.795Z,8.90
2019-04-10T18:23:28.741Z,8.80
2019-04-10T18:25:58.300Z,8.80
2019-04-10T18:28:31.872Z,8.70
2019-04-10T18:31:02.815Z,8.50
2019-04-10T18:33:39.911Z,8.50
2019-04-10T18:36:09.299Z,8.40
2019-04-10T18:38:45.952Z,8.30
2019-04-10T18:41:15.758Z,8.30
2019-04-10T18:43:50.860Z,8.20
2019-04-10T18:46:24.020Z,8.20
2019-04-10T18:48:52.613Z,8.20
2019-04-10T18:51:21.843Z,8.10
2019-04-10T18:53:51.721Z,8.00
2019-04-10T18:56:21.222Z,8.00
2019-04-10T18:59:36.480Z,7.90
2019-04-10T19:02:28.844Z,7.90
2019-04-10T19:05:08.340Z,7.80
2019-04-10T19:07:40.666Z,7.70
2019-04-10T19:10:16.297Z,7.70
2019-04-10T19:12:52.844Z,7.70
2019-04-10T19:15:22.423Z,7.60
2019-04-10T19:17:55.303Z,7.60
2019-04-10T19:20:40.664Z,7.60
2019-04-10T19:23:13.019Z,7.50
2019-04-10T19:25:43.384Z,7.50
2019-04-10T19:28:27.666Z,7.50
2019-04-10T19:31:08.716Z,7.40
2019-04-10T19:33:37.329Z,7.40
2019-04-10T19:36:07.795Z,7.40
2019-04-10T19:39:14.016Z,7.30
2019-04-10T19:41:51.725Z,7.30
2019-04-10T19:44:21.137Z,7.30
2019-04-10T19:46:50.350Z,7.30
2019-04-10T19:49:19.724Z,7.30
2019-04-10T19:51:48.776Z,7.20
2019-04-10T19:54:17.990Z,7.20
2019-04-10T19:56:47.196Z,7.20
2019-04-10T19:59:18.687Z,7.20
2019-04-10T20:01:47.019Z,7.10
2019-04-10T20:04:18.734Z,7.10
2019-04-10T20:06:49.128Z,7.10
2019-04-10T20:09:20.253Z,7.10
2019-04-10T20:11:53.048Z,7.00
2019-04-10T20:14:24.152Z,7.00
2019-04-10T20:16:57.589Z,7.00
2019-04-10T20:19:26.811Z,7.00
2019-04-10T20:21:56.478Z,7.00
2019-04-10T20:24:27.009Z,6.90
2019-04-10T20:26:59.406Z,6.90
2019-04-10T20:29:28.953Z,6.90
2019-04-10T20:31:59.025Z,6.90
2019-04-10T20:34:27.959Z,6.90
2019-04-10T20:37:02.660Z,6.90
2019-04-10T20:39:31.547Z,6.90
2019-04-10T20:42:00.887Z,6.80
2019-04-10T20:44:29.750Z,6.80
2019-04-10T20:46:58.864Z,6.80
2019-04-10T20:49:28.055Z,6.70
2019-04-10T20:51:59.643Z,6.70
2019-04-10T20:54:28.811Z,6.70
2019-04-10T20:56:57.743Z,6.70
2019-04-10T20:59:26.611Z,6.70
2019-04-10T21:01:55.866Z,6.60
2019-04-10T21:04:25.446Z,6.60
2019-04-10T21:06:54.692Z,6.60
2019-04-10T21:09:23.688Z,6.60
2019-04-10T21:12:02.133Z,6.50
2019-04-10T21:14:23.427Z,6.50
2019-04-10T21:16:52.300Z,6.50
2019-04-10T21:19:21.104Z,6.50
2019-04-10T21:21:50.995Z,6.40
2019-04-10T21:24:23.519Z,6.40
2019-04-10T21:26:54.902Z,6.40
2019-04-10T21:29:42.410Z,6.30
2019-04-10T21:32:30.361Z,6.30
2019-04-10T21:34:59.869Z,6.20
2019-04-10T21:37:28.760Z,6.20
2019-04-10T21:39:58.370Z,6.20
2019-04-10T21:42:28.565Z,6.20
2019-04-10T21:44:59.618Z,6.10
2019-04-10T21:47:29.911Z,6.10
2019-04-10T21:49:58.833Z,6.00
2019-04-10T21:52:27.730Z,6.00
2019-04-10T21:55:00.636Z,6.00
2019-04-10T21:57:32.012Z,5.90
2019-04-10T22:00:07.932Z,5.90
2019-04-10T22:02:39.982Z,5.90
2019-04-10T22:05:10.202Z,5.90
2019-04-10T22:08:05.595Z,5.80
2019-04-10T22:10:45.400Z,5.80
2019-04-10T22:13:15.332Z,5.80
2019-04-10T22:15:49.007Z,5.80
2019-04-10T22:18:18.014Z,5.80
2019-04-10T22:20:53.988Z,5.80
2019-04-10T22:23:24.427Z,5.80
2019-04-10T22:25:54.260Z,5.80
2019-04-10T22:28:23.291Z,5.80
2019-04-10T22:30:52.678Z,5.70
2019-04-10T22:33:24.309Z,5.80
2019-04-10T22:35:53.203Z,5.70
2019-04-10T22:38:21.887Z,5.70
2019-04-10T22:40:50.643Z,5.70
2019-04-10T22:43:20.290Z,5.70
2019-04-10T22:45:51.083Z,5.70
2019-04-10T22:48:20.896Z,5.80
2019-04-10T22:50:51.255Z,5.70
2019-04-10T22:53:21.369Z,5.70
2019-04-10T22:55:51.236Z,5.70
2019-04-10T22:58:21.158Z,5.70
2019-04-10T23:00:51.615Z,5.70
2019-04-10T23:03:20.374Z,5.70
2019-04-10T23:05:49.151Z,5.60
2019-04-10T23:08:17.945Z,5.60
2019-04-10T23:10:46.786Z,5.60
2019-04-10T23:13:16.118Z,5.60
2019-04-10T23:15:45.158Z,5.60
2019-04-10T23:18:17.127Z,5.60
2019-04-10T23:20:45.958Z,5.60
2019-04-10T23:23:14.762Z,5.60
2019-04-10T23:25:44.655Z,5.60
2019-04-10T23:28:13.617Z,5.60
2019-04-10T23:30:43.467Z,5.60
2019-04-10T23:33:12.574Z,5.60
2019-04-10T23:35:41.371Z,5.60
2019-04-10T23:38:15.654Z,5.60
2019-04-10T23:40:45.241Z,5.60
2019-04-10T23:43:18.128Z,5.60
2019-04-10T23:45:47.424Z,5.60
2019-04-10T23:48:17.013Z,5.60
2019-04-10T23:50:48.296Z,5.60
2019-04-10T23:53:17.453Z,5.60
2019-04-10T23:55:46.289Z,5.50
2019-04-10T23:58:15.943Z,5.50
